sensor_id;sensor_type;location;lat;lon;timestamp;temperature;humidity
15638;DHT22;26604;53.596;10.042;2024-02-14T00:01:28;5.80;99.90
15638;DHT22;26604;53.596;10.042;2024-02-14T00:03:54;5.80;99.90
15638;DHT22;26604;53.596;10.042;2024-02-14T00:06:21;5.70;99.90
15638;DHT22;26604;53.596;10.042;2024-02-14T00:08:49;5.70;99.90
15638;DHT22;26604;53.596;10.042;2024-02-14T00:11:16;5.60;99.90
15638;DHT22;26604;53.596;10.042;2024-02-14T00:13:43;5.60;99.90
15638;DHT22;26604;53.596;10.042;2024-02-14T00:16:11;5.60;99.90
15638;DHT22;26604;53.596;10.042;2024-02-14T00:18:38;5.50;99.90
15638;DHT22;26604;53.596;10.042;2024-02-14T00:21:05;5.50;99.90
15638;DHT22;26604;53.596;10.042;2024-02-14T00:23:32;5.40;99.90
15638;DHT22;26604;53.596;10.042;2024-02-14T00:25:59;5.40;99.90
15638;DHT22;26604;53.596;10.042;2024-02-14T00:28:25;5.40;99.90
15638;DHT22;26604;53.596;10.042;2024-02-14T00:30:53;5.40;99.90
15638;DHT22;26604;53.596;10.042;2024-02-14T00:33:21;5.40;99.90
15638;DHT22;26604;53.596;10.042;2024-02-14T00:35:48;5.40;99.90
15638;DHT22;26604;53.596;10.042;2024-02-14T00:38:15;5.40;99.90
15638;DHT22;26604;53.596;10.042;2024-02-14T00:40:42;5.50;99.90
15638;DHT22;26604;53.596;10.042;2024-02-14T00:43:08;5.50;99.90
15638;DHT22;26604;53.596;10.042;2024-02-14T00:45:36;5.50;99.90
15638;DHT22;26604;53.596;10.042;2024-02-14T00:48:05;5.50;99.90
15638;DHT22;26604;53.596;10.042;2024-02-14T00:50:34;5.50;99.90
15638;DHT22;26604;53.596;10.042;2024-02-14T00:53:00;5.50;99.90
15638;DHT22;26604;53.596;10.042;2024-02-14T00:55:26;5.50;99.90
15638;DHT22;26604;53.596;10.042;2024-02-14T00:57:53;5.60;99.90
15638;DHT22;26604;53.596;10.042;2024-02-14T01:00:20;5.60;99.90
15638;DHT22;26604;53.596;10.042;2024-02-14T01:02:47;5.60;99.90
15638;DHT22;26604;53.596;10.042;2024-02-14T01:05:14;5.70;99.90
15638;DHT22;26604;53.596;10.042;2024-02-14T01:07:43;5.70;99.90
15638;DHT22;26604;53.596;10.042;2024-02-14T01:10:11;5.80;99.90
15638;DHT22;26604;53.596;10.042;2024-02-14T01:12:38;5.80;99.90
15638;DHT22;26604;53.596;10.042;2024-02-14T01:15:06;5.90;99.90
15638;DHT22;26604;53.596;10.042;2024-02-14T01:17:33;5.90;99.90
15638;DHT22;26604;53.596;10.042;2024-02-14T01:20:04;5.90;99.90
15638;DHT22;26604;53.596;10.042;2024-02-14T01:22:31;6.00;99.90
15638;DHT22;26604;53.596;10.042;2024-02-14T01:25:00;6.00;99.90
15638;DHT22;26604;53.596;10.042;2024-02-14T01:27:27;6.10;99.90
15638;DHT22;26604;53.596;10.042;2024-02-14T01:29:54;6.10;99.90
15638;DHT22;26604;53.596;10.042;2024-02-14T01:32:23;6.10;99.90
15638;DHT22;26604;53.596;10.042;2024-02-14T01:34:49;6.10;99.90
15638;DHT22;26604;53.596;10.042;2024-02-14T01:37:16;6.10;99.90
15638;DHT22;26604;53.596;10.042;2024-02-14T01:39:43;6.10;99.90
15638;DHT22;26604;53.596;10.042;2024-02-14T01:42:11;6.10;99.90
15638;DHT22;26604;53.596;10.042;2024-02-14T01:44:38;6.10;99.90
15638;DHT22;26604;53.596;10.042;2024-02-14T01:47:05;6.10;99.90
15638;DHT22;26604;53.596;10.042;2024-02-14T01:49:33;6.10;99.90
15638;DHT22;26604;53.596;10.042;2024-02-14T01:52:02;6.10;99.90
15638;DHT22;26604;53.596;10.042;2024-02-14T01:54:30;6.10;99.90
15638;DHT22;26604;53.596;10.042;2024-02-14T01:56:57;6.10;99.90
15638;DHT22;26604;53.596;10.042;2024-02-14T01:59:27;6.10;99.90
15638;DHT22;26604;53.596;10.042;2024-02-14T02:01:54;6.00;99.90
15638;DHT22;26604;53.596;10.042;2024-02-14T02:04:21;6.00;99.90
15638;DHT22;26604;53.596;10.042;2024-02-14T02:06:48;6.00;99.90
15638;DHT22;26604;53.596;10.042;2024-02-14T02:09:15;6.00;99.90
15638;DHT22;26604;53.596;10.042;2024-02-14T02:11:45;6.00;99.90
15638;DHT22;26604;53.596;10.042;2024-02-14T02:14:14;6.00;99.90
15638;DHT22;26604;53.596;10.042;2024-02-14T02:16:43;6.00;99.90
15638;DHT22;26604;53.596;10.042;2024-02-14T02:19:11;6.00;99.90
15638;DHT22;26604;53.596;10.042;2024-02-14T02:21:39;6.00;99.90
15638;DHT22;26604;53.596;10.042;2024-02-14T02:24:07;5.90;99.90
15638;DHT22;26604;53.596;10.042;2024-02-14T02:26:34;5.90;99.90
15638;DHT22;26604;53.596;10.042;2024-02-14T02:29:01;5.90;99.90
15638;DHT22;26604;53.596;10.042;2024-02-14T02:31:28;5.90;99.90
15638;DHT22;26604;53.596;10.042;2024-02-14T02:33:55;5.90;99.90
15638;DHT22;26604;53.596;10.042;2024-02-14T02:36:21;5.90;99.90
15638;DHT22;26604;53.596;10.042;2024-02-14T02:38:49;5.90;99.90
15638;DHT22;26604;53.596;10.042;2024-02-14T02:41:18;5.90;99.90
15638;DHT22;26604;53.596;10.042;2024-02-14T02:43:45;5.90;99.90
15638;DHT22;26604;53.596;10.042;2024-02-14T02:46:15;5.80;99.90
15638;DHT22;26604;53.596;10.042;2024-02-14T02:48:42;5.80;99.90
15638;DHT22;26604;53.596;10.042;2024-02-14T02:51:09;5.80;99.90
15638;DHT22;26604;53.596;10.042;2024-02-14T02:53:35;5.80;99.90
15638;DHT22;26604;53.596;10.042;2024-02-14T02:56:02;5.80;99.90
15638;DHT22;26604;53.596;10.042;2024-02-14T02:58:30;5.80;99.90
15638;DHT22;26604;53.596;10.042;2024-02-14T03:00:58;5.80;99.90
15638;DHT22;26604;53.596;10.042;2024-02-14T03:03:25;5.80;99.90
15638;DHT22;26604;53.596;10.042;2024-02-14T03:05:53;5.70;99.90
15638;DHT22;26604;53.596;10.042;2024-02-14T03:08:20;5.70;99.90
15638;DHT22;26604;53.596;10.042;2024-02-14T03:10:51;5.70;99.90
15638;DHT22;26604;53.596;10.042;2024-02-14T03:13:17;5.70;99.90
15638;DHT22;26604;53.596;10.042;2024-02-14T03:15:47;5.60;99.90
15638;DHT22;26604;53.596;10.042;2024-02-14T03:18:14;5.60;99.90
15638;DHT22;26604;53.596;10.042;2024-02-14T03:20:41;5.60;99.90
15638;DHT22;26604;53.596;10.042;2024-02-14T03:23:07;5.60;99.90
15638;DHT22;26604;53.596;10.042;2024-02-14T03:25:34;5.60;99.90
15638;DHT22;26604;53.596;10.042;2024-02-14T03:28:02;5.60;99.90
15638;DHT22;26604;53.596;10.042;2024-02-14T03:30:34;5.50;99.90
15638;DHT22;26604;53.596;10.042;2024-02-14T03:33:03;5.50;99.90
15638;DHT22;26604;53.596;10.042;2024-02-14T03:35:30;5.50;99.90
15638;DHT22;26604;53.596;10.042;2024-02-14T03:37:59;5.50;99.90
15638;DHT22;26604;53.596;10.042;2024-02-14T03:40:26;5.50;99.90
15638;DHT22;26604;53.596;10.042;2024-02-14T03:42:55;5.50;99.90
15638;DHT22;26604;53.596;10.042;2024-02-14T03:45:22;5.60;99.90
15638;DHT22;26604;53.596;10.042;2024-02-14T03:47:49;5.60;99.90
15638;DHT22;26604;53.596;10.042;2024-02-14T03:50:17;5.60;99.90
15638;DHT22;26604;53.596;10.042;2024-02-14T03:52:44;5.60;99.90
15638;DHT22;26604;53.596;10.042;2024-02-14T03:55:12;5.60;99.90
15638;DHT22;26604;53.596;10.042;2024-02-14T03:57:40;5.60;99.90
15638;DHT22;26604;53.596;10.042;2024-02-14T04:00:08;5.60;99.90
15638;DHT22;26604;53.596;10.042;2024-02-14T04:02:35;5.60;99.90
15638;DHT22;26604;53.596;10.042;2024-02-14T04:05:02;5.60;99.90
15638;DHT22;26604;53.596;10.042;2024-02-14T04:07:31;5.60;99.90
15638;DHT22;26604;53.596;10.042;2024-02-14T04:09:59;5.60;99.90
15638;DHT22;26604;53.596;10.042;2024-02-14T04:12:26;5.60;99.90
15638;DHT22;26604;53.596;10.042;2024-02-14T04:14:53;5.70;99.90
15638;DHT22;26604;53.596;10.042;2024-02-14T04:17:20;5.70;99.90
15638;DHT22;26604;53.596;10.042;2024-02-14T04:19:47;5.70;99.90
15638;DHT22;26604;53.596;10.042;2024-02-14T04:22:14;5.70;99.90
15638;DHT22;26604;53.596;10.042;2024-02-14T04:24:42;5.70;99.90
15638;DHT22;26604;53.596;10.042;2024-02-14T04:27:09;5.70;99.90
15638;DHT22;26604;53.596;10.042;2024-02-14T04:29:36;5.70;99.90
15638;DHT22;26604;53.596;10.042;2024-02-14T04:32:03;5.70;99.90
15638;DHT22;26604;53.596;10.042;2024-02-14T04:34:30;5.70;99.90
15638;DHT22;26604;53.596;10.042;2024-02-14T04:36:57;5.70;99.90
15638;DHT22;26604;53.596;10.042;2024-02-14T04:39:24;5.70;99.90
15638;DHT22;26604;53.596;10.042;2024-02-14T04:41:52;5.70;99.90
15638;DHT22;26604;53.596;10.042;2024-02-14T04:44:20;5.70;99.90
15638;DHT22;26604;53.596;10.042;2024-02-14T04:46:46;5.70;99.90
15638;DHT22;26604;53.596;10.042;2024-02-14T04:49:14;5.70;99.90
15638;DHT22;26604;53.596;10.042;2024-02-14T04:51:41;5.70;99.90
15638;DHT22;26604;53.596;10.042;2024-02-14T04:54:08;5.70;99.90
15638;DHT22;26604;53.596;10.042;2024-02-14T04:56:35;5.70;99.90
15638;DHT22;26604;53.596;10.042;2024-02-14T04:59:03;5.70;99.90
15638;DHT22;26604;53.596;10.042;2024-02-14T05:01:30;5.70;99.90
15638;DHT22;26604;53.596;10.042;2024-02-14T05:03:57;5.70;99.90
15638;DHT22;26604;53.596;10.042;2024-02-14T05:06:24;5.70;99.90
15638;DHT22;26604;53.596;10.042;2024-02-14T05:08:51;5.70;99.90
15638;DHT22;26604;53.596;10.042;2024-02-14T05:11:19;5.70;99.90
15638;DHT22;26604;53.596;10.042;2024-02-14T05:13:46;5.70;99.90
15638;DHT22;26604;53.596;10.042;2024-02-14T05:16:18;5.80;99.90
15638;DHT22;26604;53.596;10.042;2024-02-14T05:18:44;5.80;99.90
15638;DHT22;26604;53.596;10.042;2024-02-14T05:21:12;5.80;99.90
15638;DHT22;26604;53.596;10.042;2024-02-14T05:23:39;5.80;99.90
15638;DHT22;26604;53.596;10.042;2024-02-14T05:26:06;5.80;99.90
15638;DHT22;26604;53.596;10.042;2024-02-14T05:28:33;5.80;99.90
15638;DHT22;26604;53.596;10.042;2024-02-14T05:31:00;5.80;99.90
15638;DHT22;26604;53.596;10.042;2024-02-14T05:33:29;5.80;99.90
15638;DHT22;26604;53.596;10.042;2024-02-14T05:35:56;5.80;99.90
15638;DHT22;26604;53.596;10.042;2024-02-14T05:38:23;5.80;99.90
15638;DHT22;26604;53.596;10.042;2024-02-14T05:40:50;5.80;99.90
15638;DHT22;26604;53.596;10.042;2024-02-14T05:43:17;5.80;99.90
15638;DHT22;26604;53.596;10.042;2024-02-14T05:45:44;5.90;99.90
15638;DHT22;26604;53.596;10.042;2024-02-14T05:48:11;5.90;99.90
15638;DHT22;26604;53.596;10.042;2024-02-14T05:50:39;5.90;99.90
15638;DHT22;26604;53.596;10.042;2024-02-14T05:53:06;6.00;99.90
15638;DHT22;26604;53.596;10.042;2024-02-14T05:55:33;6.00;99.90
15638;DHT22;26604;53.596;10.042;2024-02-14T05:58:00;6.00;99.90
15638;DHT22;26604;53.596;10.042;2024-02-14T06:00:27;5.90;99.90
15638;DHT22;26604;53.596;10.042;2024-02-14T06:02:55;6.00;99.90
15638;DHT22;26604;53.596;10.042;2024-02-14T06:05:22;6.00;99.90
15638;DHT22;26604;53.596;10.042;2024-02-14T06:07:50;6.00;99.90
15638;DHT22;26604;53.596;10.042;2024-02-14T06:10:17;6.10;99.90
15638;DHT22;26604;53.596;10.042;2024-02-14T06:12:44;6.10;99.90
15638;DHT22;26604;53.596;10.042;2024-02-14T06:15:13;6.10;99.90
15638;DHT22;26604;53.596;10.042;2024-02-14T06:17:40;6.10;99.90
15638;DHT22;26604;53.596;10.042;2024-02-14T06:20:08;6.10;99.90
15638;DHT22;26604;53.596;10.042;2024-02-14T06:22:35;6.10;99.90
15638;DHT22;26604;53.596;10.042;2024-02-14T06:25:04;6.00;99.90
15638;DHT22;26604;53.596;10.042;2024-02-14T06:27:31;6.10;99.90
15638;DHT22;26604;53.596;10.042;2024-02-14T06:29:58;6.20;99.90
15638;DHT22;26604;53.596;10.042;2024-02-14T06:32:26;6.10;99.90
15638;DHT22;26604;53.596;10.042;2024-02-14T06:34:53;6.20;99.90
15638;DHT22;26604;53.596;10.042;2024-02-14T06:37:20;6.20;99.90
15638;DHT22;26604;53.596;10.042;2024-02-14T06:39:47;6.20;99.90
15638;DHT22;26604;53.596;10.042;2024-02-14T06:42:16;6.20;99.90
15638;DHT22;26604;53.596;10.042;2024-02-14T06:44:44;6.20;99.90
15638;DHT22;26604;53.596;10.042;2024-02-14T06:47:11;6.20;99.90
15638;DHT22;26604;53.596;10.042;2024-02-14T06:49:37;6.20;99.90
15638;DHT22;26604;53.596;10.042;2024-02-14T06:52:05;6.30;99.90
15638;DHT22;26604;53.596;10.042;2024-02-14T06:54:32;6.30;99.90
15638;DHT22;26604;53.596;10.042;2024-02-14T06:56:59;6.30;99.90
15638;DHT22;26604;53.596;10.042;2024-02-14T06:59:27;6.30;99.90
15638;DHT22;26604;53.596;10.042;2024-02-14T07:01:54;6.40;99.90
15638;DHT22;26604;53.596;10.042;2024-02-14T07:04:21;6.40;99.90
15638;DHT22;26604;53.596;10.042;2024-02-14T07:06:51;6.50;99.90
15638;DHT22;26604;53.596;10.042;2024-02-14T07:09:19;6.50;99.90
15638;DHT22;26604;53.596;10.042;2024-02-14T07:11:46;6.50;99.90
15638;DHT22;26604;53.596;10.042;2024-02-14T07:14:13;6.60;99.90
15638;DHT22;26604;53.596;10.042;2024-02-14T07:16:41;6.60;99.90
15638;DHT22;26604;53.596;10.042;2024-02-14T07:19:08;6.60;99.90
15638;DHT22;26604;53.596;10.042;2024-02-14T07:21:35;6.60;99.90
15638;DHT22;26604;53.596;10.042;2024-02-14T07:24:03;6.70;99.90
15638;DHT22;26604;53.596;10.042;2024-02-14T07:26:30;6.70;99.90
15638;DHT22;26604;53.596;10.042;2024-02-14T07:28:57;6.70;99.90
15638;DHT22;26604;53.596;10.042;2024-02-14T07:31:24;6.70;99.90
15638;DHT22;26604;53.596;10.042;2024-02-14T07:33:56;6.70;99.90
15638;DHT22;26604;53.596;10.042;2024-02-14T07:36:23;6.70;99.90
15638;DHT22;26604;53.596;10.042;2024-02-14T07:38:50;6.70;99.90
15638;DHT22;26604;53.596;10.042;2024-02-14T07:41:17;6.80;99.90
15638;DHT22;26604;53.596;10.042;2024-02-14T07:43:44;6.80;99.90
15638;DHT22;26604;53.596;10.042;2024-02-14T07:46:10;6.80;99.90
15638;DHT22;26604;53.596;10.042;2024-02-14T07:48:37;6.80;99.90
15638;DHT22;26604;53.596;10.042;2024-02-14T07:51:08;6.80;99.90
15638;DHT22;26604;53.596;10.042;2024-02-14T07:53:35;6.80;99.90
15638;DHT22;26604;53.596;10.042;2024-02-14T07:56:02;6.90;99.90
15638;DHT22;26604;53.596;10.042;2024-02-14T07:58:29;6.90;99.90
15638;DHT22;26604;53.596;10.042;2024-02-14T08:00:56;6.90;99.90
15638;DHT22;26604;53.596;10.042;2024-02-14T08:03:23;6.90;99.90
15638;DHT22;26604;53.596;10.042;2024-02-14T08:05:50;7.00;99.90
15638;DHT22;26604;53.596;10.042;2024-02-14T08:08:19;7.00;99.90
15638;DHT22;26604;53.596;10.042;2024-02-14T08:10:46;7.10;99.90
15638;DHT22;26604;53.596;10.042;2024-02-14T08:13:13;7.10;99.90
15638;DHT22;26604;53.596;10.042;2024-02-14T08:15:42;7.20;99.90
15638;DHT22;26604;53.596;10.042;2024-02-14T08:18:09;7.20;99.90
15638;DHT22;26604;53.596;10.042;2024-02-14T08:20:36;7.20;99.90
15638;DHT22;26604;53.596;10.042;2024-02-14T08:23:03;7.30;99.90
15638;DHT22;26604;53.596;10.042;2024-02-14T08:25:31;7.30;99.90
15638;DHT22;26604;53.596;10.042;2024-02-14T08:27:58;7.30;99.90
15638;DHT22;26604;53.596;10.042;2024-02-14T08:30:25;7.40;99.90
15638;DHT22;26604;53.596;10.042;2024-02-14T08:32:52;7.40;99.90
15638;DHT22;26604;53.596;10.042;2024-02-14T08:35:19;7.50;99.90
15638;DHT22;26604;53.596;10.042;2024-02-14T08:37:47;7.50;99.90
15638;DHT22;26604;53.596;10.042;2024-02-14T08:40:14;7.50;99.90
15638;DHT22;26604;53.596;10.042;2024-02-14T08:42:42;7.50;99.90
15638;DHT22;26604;53.596;10.042;2024-02-14T08:45:09;7.60;99.90
15638;DHT22;26604;53.596;10.042;2024-02-14T08:47:37;7.60;99.90
15638;DHT22;26604;53.596;10.042;2024-02-14T08:50:04;7.60;99.90
15638;DHT22;26604;53.596;10.042;2024-02-14T08:52:30;7.70;99.90
15638;DHT22;26604;53.596;10.042;2024-02-14T08:54:58;7.70;99.90
15638;DHT22;26604;53.596;10.042;2024-02-14T08:57:24;7.80;99.90
15638;DHT22;26604;53.596;10.042;2024-02-14T08:59:53;7.80;99.90
15638;DHT22;26604;53.596;10.042;2024-02-14T09:02:20;7.90;99.90
15638;DHT22;26604;53.596;10.042;2024-02-14T09:04:48;7.90;99.90
15638;DHT22;26604;53.596;10.042;2024-02-14T09:07:15;8.00;99.90
15638;DHT22;26604;53.596;10.042;2024-02-14T09:09:42;8.00;99.90
15638;DHT22;26604;53.596;10.042;2024-02-14T09:12:10;8.10;99.90
15638;DHT22;26604;53.596;10.042;2024-02-14T09:14:37;8.10;99.90
15638;DHT22;26604;53.596;10.042;2024-02-14T09:17:05;8.20;99.90
15638;DHT22;26604;53.596;10.042;2024-02-14T09:19:32;8.30;99.90
15638;DHT22;26604;53.596;10.042;2024-02-14T09:21:59;8.30;99.90
15638;DHT22;26604;53.596;10.042;2024-02-14T09:24:26;8.40;99.90
15638;DHT22;26604;53.596;10.042;2024-02-14T09:26:53;8.50;99.90
15638;DHT22;26604;53.596;10.042;2024-02-14T09:29:20;8.60;99.90
15638;DHT22;26604;53.596;10.042;2024-02-14T09:31:47;8.60;99.90
15638;DHT22;26604;53.596;10.042;2024-02-14T09:34:15;8.70;99.90
15638;DHT22;26604;53.596;10.042;2024-02-14T09:36:43;8.70;99.90
15638;DHT22;26604;53.596;10.042;2024-02-14T09:39:10;8.70;99.90
15638;DHT22;26604;53.596;10.042;2024-02-14T09:41:40;8.90;99.90
15638;DHT22;26604;53.596;10.042;2024-02-14T09:44:07;9.00;99.90
15638;DHT22;26604;53.596;10.042;2024-02-14T09:46:36;9.10;99.90
15638;DHT22;26604;53.596;10.042;2024-02-14T09:49:04;9.10;99.90
15638;DHT22;26604;53.596;10.042;2024-02-14T09:51:33;9.10;99.90
15638;DHT22;26604;53.596;10.042;2024-02-14T09:54:00;9.10;99.90
15638;DHT22;26604;53.596;10.042;2024-02-14T09:56:30;9.30;99.90
15638;DHT22;26604;53.596;10.042;2024-02-14T09:58:58;9.40;99.90
15638;DHT22;26604;53.596;10.042;2024-02-14T10:01:26;9.50;99.90
15638;DHT22;26604;53.596;10.042;2024-02-14T10:03:54;9.60;99.90
15638;DHT22;26604;53.596;10.042;2024-02-14T10:06:21;9.70;99.90
15638;DHT22;26604;53.596;10.042;2024-02-14T10:08:50;9.70;99.90
15638;DHT22;26604;53.596;10.042;2024-02-14T10:11:18;9.80;99.90
15638;DHT22;26604;53.596;10.042;2024-02-14T10:13:47;9.80;99.90
15638;DHT22;26604;53.596;10.042;2024-02-14T10:16:15;9.80;99.90
15638;DHT22;26604;53.596;10.042;2024-02-14T10:18:44;9.80;99.90
15638;DHT22;26604;53.596;10.042;2024-02-14T10:21:14;9.90;99.90
15638;DHT22;26604;53.596;10.042;2024-02-14T10:23:42;9.90;99.90
15638;DHT22;26604;53.596;10.042;2024-02-14T10:26:12;10.00;99.90
15638;DHT22;26604;53.596;10.042;2024-02-14T10:28:41;10.10;99.90
15638;DHT22;26604;53.596;10.042;2024-02-14T10:31:10;10.20;99.90
15638;DHT22;26604;53.596;10.042;2024-02-14T10:33:39;10.30;99.90
15638;DHT22;26604;53.596;10.042;2024-02-14T10:36:07;10.50;99.90
15638;DHT22;26604;53.596;10.042;2024-02-14T10:38:35;10.50;99.90
15638;DHT22;26604;53.596;10.042;2024-02-14T10:41:02;10.60;99.90
15638;DHT22;26604;53.596;10.042;2024-02-14T10:43:31;10.70;99.90
15638;DHT22;26604;53.596;10.042;2024-02-14T10:46:00;10.70;99.90
15638;DHT22;26604;53.596;10.042;2024-02-14T10:48:31;10.80;99.90
15638;DHT22;26604;53.596;10.042;2024-02-14T10:51:02;11.00;99.90
15638;DHT22;26604;53.596;10.042;2024-02-14T10:53:33;11.10;99.90
15638;DHT22;26604;53.596;10.042;2024-02-14T10:56:01;11.30;99.90
15638;DHT22;26604;53.596;10.042;2024-02-14T10:58:31;11.40;99.90
15638;DHT22;26604;53.596;10.042;2024-02-14T11:00:59;11.50;99.90
15638;DHT22;26604;53.596;10.042;2024-02-14T11:03:27;11.50;99.90
15638;DHT22;26604;53.596;10.042;2024-02-14T11:05:55;11.50;99.90
15638;DHT22;26604;53.596;10.042;2024-02-14T11:08:29;11.50;99.90
15638;DHT22;26604;53.596;10.042;2024-02-14T11:10:59;11.50;99.90
15638;DHT22;26604;53.596;10.042;2024-02-14T11:13:27;11.50;99.90
15638;DHT22;26604;53.596;10.042;2024-02-14T11:16:00;11.50;99.90
15638;DHT22;26604;53.596;10.042;2024-02-14T11:18:28;11.50;99.90
15638;DHT22;26604;53.596;10.042;2024-02-14T11:20:56;11.50;99.90
15638;DHT22;26604;53.596;10.042;2024-02-14T11:23:23;11.40;99.90
15638;DHT22;26604;53.596;10.042;2024-02-14T11:25:59;11.50;99.90
15638;DHT22;26604;53.596;10.042;2024-02-14T11:28:26;11.40;99.90
15638;DHT22;26604;53.596;10.042;2024-02-14T11:31:01;11.40;99.90
15638;DHT22;26604;53.596;10.042;2024-02-14T11:33:29;11.40;99.90
15638;DHT22;26604;53.596;10.042;2024-02-14T11:35:56;11.40;99.90
15638;DHT22;26604;53.596;10.042;2024-02-14T11:38:24;11.40;99.90
15638;DHT22;26604;53.596;10.042;2024-02-14T11:40:54;11.40;99.90
15638;DHT22;26604;53.596;10.042;2024-02-14T11:43:22;11.50;99.90
15638;DHT22;26604;53.596;10.042;2024-02-14T11:45:50;11.50;99.90
15638;DHT22;26604;53.596;10.042;2024-02-14T11:48:19;11.60;99.90
15638;DHT22;26604;53.596;10.042;2024-02-14T11:50:47;11.70;99.90
15638;DHT22;26604;53.596;10.042;2024-02-14T11:53:15;11.70;99.90
15638;DHT22;26604;53.596;10.042;2024-02-14T11:55:44;11.80;99.90
15638;DHT22;26604;53.596;10.042;2024-02-14T11:58:13;11.90;99.90
15638;DHT22;26604;53.596;10.042;2024-02-14T12:00:42;11.90;99.90
15638;DHT22;26604;53.596;10.042;2024-02-14T12:03:12;12.10;99.90
15638;DHT22;26604;53.596;10.042;2024-02-14T12:05:40;12.10;99.90
15638;DHT22;26604;53.596;10.042;2024-02-14T12:08:09;12.10;99.90
15638;DHT22;26604;53.596;10.042;2024-02-14T12:10:36;12.10;99.90
15638;DHT22;26604;53.596;10.042;2024-02-14T12:13:07;12.00;99.90
15638;DHT22;26604;53.596;10.042;2024-02-14T12:15:39;12.00;99.90
15638;DHT22;26604;53.596;10.042;2024-02-14T12:18:06;11.90;99.90
15638;DHT22;26604;53.596;10.042;2024-02-14T12:20:33;11.90;99.90
15638;DHT22;26604;53.596;10.042;2024-02-14T12:23:01;11.90;99.90
15638;DHT22;26604;53.596;10.042;2024-02-14T12:25:29;11.90;99.90
15638;DHT22;26604;53.596;10.042;2024-02-14T12:27:57;11.90;99.90
15638;DHT22;26604;53.596;10.042;2024-02-14T12:30:42;11.90;99.90
15638;DHT22;26604;53.596;10.042;2024-02-14T12:33:10;11.80;99.90
15638;DHT22;26604;53.596;10.042;2024-02-14T12:35:45;11.90;99.90
15638;DHT22;26604;53.596;10.042;2024-02-14T12:38:14;11.90;99.90
15638;DHT22;26604;53.596;10.042;2024-02-14T12:40:41;11.90;99.90
15638;DHT22;26604;53.596;10.042;2024-02-14T12:43:10;11.90;99.90
15638;DHT22;26604;53.596;10.042;2024-02-14T12:45:37;11.90;99.90
15638;DHT22;26604;53.596;10.042;2024-02-14T12:48:04;12.00;99.90
15638;DHT22;26604;53.596;10.042;2024-02-14T12:50:32;12.00;99.90
15638;DHT22;26604;53.596;10.042;2024-02-14T12:52:58;12.10;99.90
15638;DHT22;26604;53.596;10.042;2024-02-14T12:55:27;12.10;99.90
15638;DHT22;26604;53.596;10.042;2024-02-14T12:57:54;12.20;99.90
15638;DHT22;26604;53.596;10.042;2024-02-14T13:00:21;12.30;99.90
15638;DHT22;26604;53.596;10.042;2024-02-14T13:02:48;12.30;99.90
15638;DHT22;26604;53.596;10.042;2024-02-14T13:05:15;12.20;99.90
15638;DHT22;26604;53.596;10.042;2024-02-14T13:07:42;12.20;99.90
15638;DHT22;26604;53.596;10.042;2024-02-14T13:10:09;12.20;99.90
15638;DHT22;26604;53.596;10.042;2024-02-14T13:12:38;12.20;99.90
15638;DHT22;26604;53.596;10.042;2024-02-14T13:15:06;12.10;99.90
15638;DHT22;26604;53.596;10.042;2024-02-14T13:17:33;12.10;99.90
15638;DHT22;26604;53.596;10.042;2024-02-14T13:19:59;12.00;99.90
15638;DHT22;26604;53.596;10.042;2024-02-14T13:22:27;12.00;99.90
15638;DHT22;26604;53.596;10.042;2024-02-14T13:24:54;12.00;99.90
15638;DHT22;26604;53.596;10.042;2024-02-14T13:27:21;12.00;99.90
15638;DHT22;26604;53.596;10.042;2024-02-14T13:29:50;12.00;99.90
15638;DHT22;26604;53.596;10.042;2024-02-14T13:32:17;12.00;99.90
15638;DHT22;26604;53.596;10.042;2024-02-14T13:34:44;12.10;99.90
15638;DHT22;26604;53.596;10.042;2024-02-14T13:37:11;12.10;99.90
15638;DHT22;26604;53.596;10.042;2024-02-14T13:39:37;12.20;99.90
15638;DHT22;26604;53.596;10.042;2024-02-14T13:42:05;12.30;99.90
15638;DHT22;26604;53.596;10.042;2024-02-14T13:44:33;12.40;99.90
15638;DHT22;26604;53.596;10.042;2024-02-14T13:47:01;12.40;99.90
15638;DHT22;26604;53.596;10.042;2024-02-14T13:49:29;12.40;99.90
15638;DHT22;26604;53.596;10.042;2024-02-14T13:51:55;12.30;99.90
15638;DHT22;26604;53.596;10.042;2024-02-14T13:54:24;12.30;99.90
15638;DHT22;26604;53.596;10.042;2024-02-14T13:56:51;12.30;99.90
15638;DHT22;26604;53.596;10.042;2024-02-14T13:59:18;12.30;99.90
15638;DHT22;26604;53.596;10.042;2024-02-14T14:01:45;12.30;99.90
15638;DHT22;26604;53.596;10.042;2024-02-14T14:04:15;12.30;99.90
15638;DHT22;26604;53.596;10.042;2024-02-14T14:06:41;12.30;99.90
15638;DHT22;26604;53.596;10.042;2024-02-14T14:09:08;12.30;99.90
15638;DHT22;26604;53.596;10.042;2024-02-14T14:11:36;12.20;99.90
15638;DHT22;26604;53.596;10.042;2024-02-14T14:14:03;12.30;99.90
15638;DHT22;26604;53.596;10.042;2024-02-14T14:16:30;12.30;99.90
15638;DHT22;26604;53.596;10.042;2024-02-14T14:18:58;12.20;99.90
15638;DHT22;26604;53.596;10.042;2024-02-14T14:21:27;12.20;99.90
15638;DHT22;26604;53.596;10.042;2024-02-14T14:23:54;12.20;99.90
15638;DHT22;26604;53.596;10.042;2024-02-14T14:26:21;12.10;99.90
15638;DHT22;26604;53.596;10.042;2024-02-14T14:28:48;12.10;99.90
15638;DHT22;26604;53.596;10.042;2024-02-14T14:31:15;12.10;99.90
15638;DHT22;26604;53.596;10.042;2024-02-14T14:33:41;12.10;99.90
15638;DHT22;26604;53.596;10.042;2024-02-14T14:36:08;12.10;99.90
15638;DHT22;26604;53.596;10.042;2024-02-14T14:38:37;12.00;99.90
15638;DHT22;26604;53.596;10.042;2024-02-14T14:41:06;12.00;99.90
15638;DHT22;26604;53.596;10.042;2024-02-14T14:43:33;12.00;99.90
15638;DHT22;26604;53.596;10.042;2024-02-14T14:46:00;11.90;99.90
15638;DHT22;26604;53.596;10.042;2024-02-14T14:48:26;11.90;99.90
15638;DHT22;26604;53.596;10.042;2024-02-14T14:50:53;11.80;99.90
15638;DHT22;26604;53.596;10.042;2024-02-14T14:53:20;11.80;99.90
15638;DHT22;26604;53.596;10.042;2024-02-14T14:55:54;11.80;99.90
15638;DHT22;26604;53.596;10.042;2024-02-14T14:58:22;11.70;99.90
15638;DHT22;26604;53.596;10.042;2024-02-14T15:00:49;11.70;99.90
15638;DHT22;26604;53.596;10.042;2024-02-14T15:03:20;11.70;99.90
15638;DHT22;26604;53.596;10.042;2024-02-14T15:05:47;11.60;99.90
15638;DHT22;26604;53.596;10.042;2024-02-14T15:08:14;11.60;99.90
15638;DHT22;26604;53.596;10.042;2024-02-14T15:10:43;11.60;99.90
15638;DHT22;26604;53.596;10.042;2024-02-14T15:13:11;11.60;99.90
15638;DHT22;26604;53.596;10.042;2024-02-14T15:15:39;11.60;99.90
15638;DHT22;26604;53.596;10.042;2024-02-14T15:18:06;11.50;99.90
15638;DHT22;26604;53.596;10.042;2024-02-14T15:20:33;11.50;99.90
15638;DHT22;26604;53.596;10.042;2024-02-14T15:23:01;11.40;99.90
15638;DHT22;26604;53.596;10.042;2024-02-14T15:25:28;11.40;99.90
15638;DHT22;26604;53.596;10.042;2024-02-14T15:27:55;11.40;99.90